Terminal Aerodrome Forecast
Issued by NWS

Home | Current Version | Previous Version | Graphics & Text | Print | Product List | Glossary On
Versions: 1 2 3 4 5 6 7 8 9 10 11 12 13 14 15 16 17 18 19 20 21 22 23 24 25 26 27 28
000
FTUS43 KBIS 041120
TAFJMS
TAF
KJMS 041120Z 0412/0512 13008KT P6SM VCFG SCT004 BKN200
      TEMPO 0412/0415 2SM BR BKN004
     FM041500 14011KT 4SM -SHRA VCTS SCT015 BKN035CB
     FM041900 18011KT P6SM SCT060
     FM050000 13009KT P6SM SCT035 SCT090=

USA.gov is the U.S. government's official web portal to all federal, state and local government web resources and services.